Time;durP1;ratioP1;P1;durP2;ratioP2;P2;SDS_P1;SDS_P2;PMS_P1;PMS_P2;Temp;Humidity;BMP_temperature;BMP_pressure;BME280_temperature;BME280_humidity;BME280_pressure;Samples;Min_cycle;Max_cycle;Signal;HPM_P1;HPM_P2
2023/06/03 00:01:42;;;;;;;5.93;5.10;;;;;;;18.64;69.42;96659.78;5067060;28;20196;-74
2023/06/03 00:04:11;;;;;;;7.17;5.23;;;;;;;18.66;69.63;96650.84;5048082;28;20291;-74
2023/06/03 00:06:38;;;;;;;9.50;6.03;;;;;;;18.38;70.41;96650.63;5066961;28;20282;-74
2023/06/03 00:09:05;;;;;;;11.63;6.20;;;;;;;17.85;72.34;96655.84;5065809;28;20215;-75
2023/06/03 00:11:35;;;;;;;9.97;6.30;;;;;;;17.47;74.46;96650.19;5049031;28;20194;-75
2023/06/03 00:14:03;;;;;;;9.30;6.33;;;;;;;17.29;75.85;96646.38;5066158;28;20191;-75
2023/06/03 00:16:32;;;;;;;7.53;6.67;;;;;;;17.28;75.69;96642.13;5066559;28;20742;-75
2023/06/03 00:19:03;;;;;;;8.17;6.33;;;;;;;17.27;75.71;96642.25;5048863;28;20267;-75
2023/06/03 00:21:30;;;;;;;7.23;6.40;;;;;;;17.14;76.43;96659.84;5065730;28;20192;-74
2023/06/03 00:23:58;;;;;;;8.03;6.10;;;;;;;17.01;77.23;96659.97;5066932;28;20756;-74
2023/06/03 00:26:25;;;;;;;7.97;6.57;;;;;;;17.16;76.39;96658.78;5065829;28;20251;-77
2023/06/03 00:28:56;;;;;;;9.60;6.67;;;;;;;17.35;75.28;96660.78;5049290;28;20240;-74
2023/06/03 00:31:24;;;;;;;7.73;6.20;;;;;;;17.47;74.95;96665.06;5068947;28;20232;-77
2023/06/03 00:33:51;;;;;;;10.57;6.40;;;;;;;17.67;74.12;96662.56;5052199;28;20667;-75
2023/06/03 00:36:18;;;;;;;7.90;6.00;;;;;;;17.73;73.50;96667.28;5069916;28;20178;-75
2023/06/03 00:38:45;;;;;;;8.63;6.97;;;;;;;17.30;75.52;96679.47;5069343;28;20224;-75
2023/06/03 00:41:12;;;;;;;8.67;6.73;;;;;;;17.04;77.13;96675.44;5052454;28;20660;-74
2023/06/03 00:43:40;;;;;;;8.57;6.73;;;;;;;16.83;78.11;96664.00;5069221;28;20194;-75
2023/06/03 00:46:10;;;;;;;10.87;7.00;;;;;;;16.99;77.11;96659.25;5070594;28;20200;-74
2023/06/03 00:48:38;;;;;;;9.50;6.60;;;;;;;16.87;77.74;96676.72;5069459;28;20259;-75
2023/06/03 00:51:07;;;;;;;9.37;6.90;;;;;;;16.73;79.27;96676.09;5069690;28;20195;-76
2023/06/03 00:53:36;;;;;;;8.30;6.90;;;;;;;16.60;81.08;96686.66;5069936;28;20292;-77
2023/06/03 00:56:03;;;;;;;10.30;7.60;;;;;;;16.57;81.20;96678.22;5051269;28;20198;-76
2023/06/03 00:58:32;;;;;;;10.13;7.20;;;;;;;16.57;82.03;96691.28;5070502;28;20198;-75
2023/06/03 01:00:59;;;;;;;10.53;8.17;;;;;;;16.61;82.11;96684.88;5067179;28;20300;-74
2023/06/03 01:03:27;;;;;;;11.63;7.40;;;;;;;16.49;81.94;96697.06;5070244;28;20197;-75
2023/06/03 01:06:32;;;;;;;9.33;7.70;;;;;;;16.45;82.58;96692.16;5069000;28;20244;-76
2023/06/03 01:09:14;;;;;;;14.93;8.00;;;;;;;16.22;83.50;96684.25;5051006;28;20262;-77
2023/06/03 01:11:50;;;;;;;11.93;8.27;;;;;;;16.31;83.46;96687.97;5052008;28;20217;-82
2023/06/03 01:14:47;;;;;;;10.07;7.77;;;;;;;16.07;82.88;96659.25;5034023;28;20204;-80
2023/06/03 01:17:16;;;;;;;10.27;7.33;;;;;;;16.42;81.26;96684.56;5067626;28;20272;-81
2023/06/03 01:19:50;;;;;;;12.03;6.73;;;;;;;16.52;79.25;96680.34;5069383;28;20325;-76
2023/06/03 01:22:20;;;;;;;8.10;7.30;;;;;;;16.28;81.23;96677.72;5068645;28;20630;-79
2023/06/03 01:24:50;;;;;;;11.03;7.47;;;;;;;16.22;81.37;96658.13;5051846;28;20198;-75
2023/06/03 01:27:18;;;;;;;7.50;6.80;;;;;;;16.50;79.64;96677.00;5050838;28;20268;-76
2023/06/03 01:29:46;;;;;;;7.67;6.37;;;;;;;16.41;77.78;96673.25;5051413;28;20268;-75
2023/06/03 01:32:16;;;;;;;8.97;6.30;;;;;;;16.35;76.92;96672.88;5068954;28;20195;-74
2023/06/03 01:34:43;;;;;;;11.57;6.73;;;;;;;16.58;77.45;96670.25;5050983;28;20177;-75
2023/06/03 01:37:12;;;;;;;10.07;6.77;;;;;;;16.69;77.98;96664.22;5084677;28;20187;-74
2023/06/03 01:39:41;;;;;;;10.67;6.70;;;;;;;16.87;77.47;96661.03;5050252;28;20224;-73
2023/06/03 01:42:11;;;;;;;10.57;7.10;;;;;;;17.08;77.03;96659.34;5051008;28;20707;-76
2023/06/03 01:44:39;;;;;;;8.47;5.83;;;;;;;17.20;75.94;96660.19;5050246;28;20272;-73
2023/06/03 01:47:07;;;;;;;8.13;6.90;;;;;;;17.32;75.12;96667.09;5051016;28;20194;-74
2023/06/03 01:49:35;;;;;;;8.43;6.20;;;;;;;17.47;73.40;96676.38;5050666;28;20239;-73
2023/06/03 01:52:03;;;;;;;7.57;5.30;;;;;;;17.39;72.96;96672.69;5068881;28;20190;-74
2023/06/03 01:54:30;;;;;;;9.37;5.83;;;;;;;17.10;72.91;96681.00;5084594;28;20190;-74
2023/06/03 01:56:58;;;;;;;9.50;5.87;;;;;;;16.42;75.22;96661.88;5067969;28;20217;-75
2023/06/03 01:59:25;;;;;;;14.10;6.13;;;;;;;16.32;76.46;96667.91;5050976;28;20218;-76
2023/06/03 02:01:54;;;;;;;6.27;5.53;;;;;;;16.11;77.08;96663.31;5032616;28;20217;-74
2023/06/03 02:04:21;;;;;;;9.60;5.80;;;;;;;16.27;76.62;96663.84;5050782;28;20592;-74
2023/06/03 02:06:53;;;;;;;6.87;5.23;;;;;;;16.62;75.10;96674.31;5033307;28;20194;-75
2023/06/03 02:09:29;;;;;;;14.23;6.20;;;;;;;16.79;73.70;96663.41;5050253;28;20258;-74
2023/06/03 02:11:59;;;;;;;6.97;5.87;;;;;;;17.06;72.99;96670.91;5084261;28;20194;-74
2023/06/03 02:14:28;;;;;;;7.80;5.90;;;;;;;17.16;71.84;96679.72;5049469;28;20193;-74
2023/06/03 02:16:55;;;;;;;6.63;5.53;;;;;;;16.90;72.65;96668.63;5050832;28;20197;-73
2023/06/03 02:19:25;;;;;;;8.17;6.20;;;;;;;16.90;73.00;96667.78;5067285;28;20229;-74
2023/06/03 02:21:58;;;;;;;8.97;6.10;;;;;;;16.92;72.76;96658.03;5068208;28;21292;-73
2023/06/03 02:24:28;;;;;;;9.23;6.63;;;;;;;17.02;72.49;96674.72;5067958;28;20190;-74
2023/06/03 02:27:00;;;;;;;8.83;6.33;;;;;;;17.03;72.75;96681.59;5049138;28;20283;-73
2023/06/03 02:29:29;;;;;;;10.27;6.50;;;;;;;16.84;73.25;96670.88;5050548;28;20567;-72
2023/06/03 02:31:58;;;;;;;8.47;6.20;;;;;;;16.62;74.68;96686.53;5032163;28;20234;-72
2023/06/03 02:34:26;;;;;;;8.13;5.83;;;;;;;16.59;74.43;96690.22;5068099;28;20200;-73
2023/06/03 02:36:53;;;;;;;8.10;6.70;;;;;;;16.20;75.74;96685.28;5049359;28;20273;-73
2023/06/03 02:39:22;;;;;;;8.03;6.03;;;;;;;16.33;76.17;96693.06;5033309;28;20201;-73
2023/06/03 02:41:49;;;;;;;8.97;6.73;;;;;;;16.45;75.37;96676.47;5067733;28;20272;-72
2023/06/03 02:44:17;;;;;;;10.97;6.67;;;;;;;16.42;75.18;96674.94;5049308;28;20214;-72
2023/06/03 02:46:45;;;;;;;7.13;6.20;;;;;;;16.20;76.07;96673.06;5050065;28;20646;-73
2023/06/03 02:49:13;;;;;;;9.90;6.83;;;;;;;16.32;76.10;96683.56;5048787;28;20668;-73
2023/06/03 02:51:41;;;;;;;8.33;6.00;;;;;;;16.09;76.68;96683.47;5067852;28;20199;-74
2023/06/03 02:54:08;;;;;;;9.37;6.50;;;;;;;16.04;77.26;96683.00;5048681;28;20220;-74
2023/06/03 02:56:36;;;;;;;8.93;6.43;;;;;;;16.23;76.21;96680.69;5049731;28;20719;-74
2023/06/03 02:59:05;;;;;;;9.57;6.50;;;;;;;16.30;75.69;96681.06;5049416;28;20778;-74
2023/06/03 03:01:33;;;;;;;10.80;6.57;;;;;;;16.20;75.42;96683.53;5082396;28;20210;-74
2023/06/03 03:04:01;;;;;;;8.67;5.83;;;;;;;16.25;74.72;96684.03;5057181;28;20205;-73
2023/06/03 03:06:29;;;;;;;10.87;6.40;;;;;;;16.16;74.40;96687.31;5028740;28;20703;-74
2023/06/03 03:08:56;;;;;;;9.27;6.70;;;;;;;15.56;76.15;96683.09;5029910;28;20187;-77
2023/06/03 03:11:34;;;;;;;7.50;6.03;;;;;;;15.44;77.29;96685.63;5029017;28;20338;-77
2023/06/03 03:14:02;;;;;;;7.30;5.30;;;;;;;15.61;76.68;96679.19;5047177;28;20198;-80
2023/06/03 03:16:33;;;;;;;7.17;5.77;;;;;;;15.75;76.43;96681.66;5029575;28;20191;-79
2023/06/03 03:19:02;;;;;;;9.53;5.60;;;;;;;15.46;77.81;96677.66;5029274;28;20605;-77
2023/06/03 03:21:29;;;;;;;10.10;5.67;;;;;;;15.51;78.06;96675.56;5047534;28;20677;-79
2023/06/03 03:24:00;;;;;;;10.20;6.13;;;;;;;15.61;77.82;96673.13;5028817;28;20264;-74
2023/06/03 03:26:31;;;;;;;11.10;6.27;;;;;;;15.89;77.12;96675.44;5047173;28;21038;-74
2023/06/03 03:28:58;;;;;;;9.57;6.17;;;;;;;15.77;77.42;96665.88;5046171;28;20205;-75
2023/06/03 03:31:26;;;;;;;9.80;6.23;;;;;;;15.83;77.35;96676.69;5028753;28;20774;-75
2023/06/03 03:33:54;;;;;;;13.00;5.57;;;;;;;16.07;76.32;96667.06;5047073;28;20388;-74
2023/06/03 03:36:22;;;;;;;8.80;6.60;;;;;;;16.10;76.50;96690.38;5028389;28;20255;-75
2023/06/03 03:39:05;;;;;;;9.63;6.20;;;;;;;16.19;76.14;96647.06;5029365;28;20189;-74
2023/06/03 03:41:42;;;;;;;8.77;5.80;;;;;;;16.65;75.21;96686.31;5028196;28;20214;-74
2023/06/03 03:44:12;;;;;;;12.20;6.60;;;;;;;16.71;74.59;96685.84;5028890;28;20182;-72
2023/06/03 03:46:56;;;;;;;7.87;6.00;;;;;;;17.03;73.58;96682.44;5045216;28;20221;-73
2023/06/03 03:49:29;;;;;;;10.57;6.90;;;;;;;17.30;72.15;96689.94;5028713;28;20183;-73
2023/06/03 03:52:04;;;;;;;10.77;6.57;;;;;;;17.70;70.52;96680.63;5029198;28;20564;-74
2023/06/03 03:54:35;;;;;;;13.23;6.93;;;;;;;17.60;70.82;96699.81;5028197;28;20682;-73
2023/06/03 03:57:12;;;;;;;13.60;6.50;;;;;;;17.42;71.45;96696.81;5029003;28;20221;-71
2023/06/03 03:59:46;;;;;;;10.93;6.50;;;;;;;17.43;71.48;96692.44;5028788;28;20708;-78
2023/06/03 04:02:15;;;;;;;19.13;8.97;;;;;;;18.02;69.87;96698.16;5028428;28;20534;-72
2023/06/03 04:04:44;;;;;;;9.57;6.10;;;;;;;18.16;68.94;96698.72;5031484;28;20196;-74
2023/06/03 04:07:17;;;;;;;8.97;5.90;;;;;;;18.40;67.60;96699.31;5050177;28;20188;-75
2023/06/03 04:09:45;;;;;;;10.03;7.03;;;;;;;18.43;67.68;96712.22;5033038;28;20195;-73
2023/06/03 04:12:24;;;;;;;8.27;6.37;;;;;;;17.83;69.72;96699.66;5032339;28;20195;-72
2023/06/03 04:14:53;;;;;;;10.30;7.07;;;;;;;17.79;70.58;96702.63;5049933;28;20202;-74
2023/06/03 04:17:25;;;;;;;8.23;6.57;;;;;;;17.79;70.70;96693.00;5032862;28;20188;-73
2023/06/03 04:19:53;;;;;;;9.80;6.80;;;;;;;17.89;70.95;96693.91;5031666;28;20200;-72
2023/06/03 04:22:24;;;;;;;8.93;6.43;;;;;;;17.87;71.08;96701.06;5016333;28;20204;-74
2023/06/03 04:24:59;;;;;;;7.47;6.27;;;;;;;17.61;72.00;96694.47;5031858;28;20183;-74
2023/06/03 04:27:46;;;;;;;9.17;6.80;;;;;;;17.41;73.28;96707.44;5049642;28;20202;-74
2023/06/03 04:30:16;;;;;;;8.97;6.33;;;;;;;17.42;73.27;96694.22;5009305;28;20239;-76
2023/06/03 04:32:43;;;;;;;9.33;6.63;;;;;;;17.75;72.41;96703.84;5024895;28;20181;-75
2023/06/03 04:35:11;;;;;;;9.17;5.90;;;;;;;17.98;71.51;96702.00;5026032;28;20680;-74
2023/06/03 04:37:42;;;;;;;6.87;5.73;;;;;;;18.16;70.77;96711.00;5009589;28;20576;-72
2023/06/03 04:40:14;;;;;;;6.97;5.60;;;;;;;18.10;70.60;96712.31;5025017;28;20224;-75
2023/06/03 04:42:46;;;;;;;10.67;6.73;;;;;;;18.53;69.19;96705.28;5024951;28;20578;-72
2023/06/03 04:45:14;;;;;;;9.37;5.20;;;;;;;18.25;69.71;96697.16;5007855;28;20236;-76
2023/06/03 04:47:42;;;;;;;9.00;5.70;;;;;;;18.90;68.63;96703.03;5025042;28;20201;-80
2023/06/03 04:50:17;;;;;;;10.37;6.23;;;;;;;19.30;66.61;96698.69;5021735;28;20189;-78
2023/06/03 04:52:45;;;;;;;12.03;5.80;;;;;;;19.41;66.02;96709.13;5008949;28;20210;-75
2023/06/03 04:55:13;;;;;;;7.90;5.27;;;;;;;19.28;66.07;96710.28;5009333;28;20202;-74
2023/06/03 04:57:45;;;;;;;5.73;4.63;;;;;;;19.03;66.95;96702.81;5025150;28;20597;-79
2023/06/03 05:00:18;;;;;;;7.30;5.57;;;;;;;18.96;66.79;96702.50;5008303;28;20229;-81
2023/06/03 05:02:55;;;;;;;10.17;5.23;;;;;;;18.86;67.49;96698.16;5007984;28;20198;-79
2023/06/03 05:05:26;;;;;;;6.80;5.47;;;;;;;18.85;67.48;96694.72;5009960;28;20228;-80
2023/06/03 05:07:55;;;;;;;7.23;5.37;;;;;;;18.90;67.74;96707.47;5024173;28;20198;-80
2023/06/03 05:10:22;;;;;;;7.33;5.80;;;;;;;18.95;67.76;96700.84;5008415;28;20213;-80
2023/06/03 05:12:49;;;;;;;7.53;5.87;;;;;;;18.76;68.46;96711.22;5024333;28;20197;-80
2023/06/03 05:15:19;;;;;;;9.97;6.23;;;;;;;18.39;70.38;96704.72;5023835;28;20195;-80
2023/06/03 05:17:46;;;;;;;8.00;6.23;;;;;;;18.54;69.77;96709.56;5024813;28;20201;-79
2023/06/03 05:20:15;;;;;;;7.13;5.77;;;;;;;18.66;69.75;96705.09;5023976;28;20222;-80
2023/06/03 05:22:42;;;;;;;10.40;6.47;;;;;;;18.56;70.21;96706.81;5024881;28;20194;-75
2023/06/03 05:25:10;;;;;;;8.43;6.23;;;;;;;18.78;69.60;96713.72;5007077;28;20595;-75
2023/06/03 05:27:38;;;;;;;12.93;6.40;;;;;;;18.88;69.75;96710.19;5009469;28;20193;-73
2023/06/03 05:30:08;;;;;;;7.73;5.60;;;;;;;19.03;69.19;96716.78;5006010;28;20265;-78
2023/06/03 05:32:35;;;;;;;9.63;5.97;;;;;;;19.46;67.91;96703.47;5015195;28;20686;-72
2023/06/03 05:35:06;;;;;;;11.70;5.90;;;;;;;19.43;68.02;96712.44;5007201;28;20636;-73
2023/06/03 05:37:33;;;;;;;12.93;6.30;;;;;;;19.60;67.77;96723.31;5007073;28;20212;-75
2023/06/03 05:40:00;;;;;;;7.63;6.00;;;;;;;19.89;66.87;96708.44;4991595;28;20206;-74
2023/06/03 05:42:30;;;;;;;8.17;6.10;;;;;;;20.15;66.03;96704.34;5006241;28;20190;-74
2023/06/03 05:44:57;;;;;;;9.73;5.30;;;;;;;20.54;64.62;96716.59;5005892;28;20289;-77
2023/06/03 05:47:26;;;;;;;14.50;5.93;;;;;;;21.05;64.09;96708.38;5006559;28;20741;-76
2023/06/03 05:49:53;;;;;;;8.93;5.17;;;;;;;21.27;62.46;96704.56;4990333;28;20204;-73
2023/06/03 05:52:22;;;;;;;9.73;6.03;;;;;;;21.24;62.73;96702.22;5007193;28;20203;-74
2023/06/03 05:54:49;;;;;;;11.23;7.00;;;;;;;21.26;63.03;96716.06;5006683;28;20207;-73
2023/06/03 05:57:18;;;;;;;9.20;7.37;;;;;;;21.23;63.25;96716.34;4990839;28;20195;-74
2023/06/03 05:59:46;;;;;;;11.73;8.10;;;;;;;21.10;63.43;96713.22;5038967;28;20192;-75
2023/06/03 06:02:13;;;;;;;10.93;6.43;;;;;;;21.52;62.45;96719.72;5006830;28;20616;-75
2023/06/03 06:04:42;;;;;;;6.83;5.17;;;;;;;21.51;62.11;96713.63;5006351;28;20193;-74
2023/06/03 06:07:10;;;;;;;10.60;6.67;;;;;;;21.44;61.34;96711.69;4990590;28;20198;-72
2023/06/03 06:10:17;;;;;;;12.47;6.43;;;;;;;21.47;61.52;96706.16;5006520;28;20224;-72
2023/06/03 06:13:41;;;;;;;13.70;6.17;;;;;;;21.36;61.96;96716.88;5005380;28;20197;-73
2023/06/03 06:16:22;;;;;;;9.13;6.17;;;;;;;21.08;61.69;96686.19;5005525;28;20278;-74
2023/06/03 06:18:50;;;;;;;13.53;9.63;;;;;;;21.22;61.97;96706.78;5023059;28;20298;-75
2023/06/03 06:21:17;;;;;;;17.67;9.97;;;;;;;21.06;62.82;96721.38;5005730;28;20663;-72
2023/06/03 06:23:46;;;;;;;11.73;9.17;;;;;;;21.06;63.42;96729.28;5007223;28;20191;-79
2023/06/03 06:26:15;;;;;;;10.03;7.67;;;;;;;20.67;64.94;96730.25;5006004;28;20272;-76
2023/06/03 06:28:45;;;;;;;11.00;7.57;;;;;;;20.13;66.23;96719.44;4990348;28;20219;-77
2023/06/03 06:31:15;;;;;;;15.00;8.13;;;;;;;20.25;66.48;96721.00;5022243;28;20218;-70
2023/06/03 06:33:48;;;;;;;15.80;9.13;;;;;;;20.25;66.56;96731.50;5045484;28;20217;-71
2023/06/03 06:36:28;;;;;;;11.03;8.23;;;;;;;20.33;66.87;96723.78;5045418;28;20186;-74
2023/06/03 06:38:57;;;;;;;9.97;7.43;;;;;;;20.37;66.56;96722.53;5028201;28;20188;-77
2023/06/03 06:41:27;;;;;;;10.20;7.77;;;;;;;20.47;65.85;96731.25;5012594;28;20240;-74
2023/06/03 06:43:57;;;;;;;12.37;7.97;;;;;;;20.32;66.51;96727.34;5029354;28;20273;-71
2023/06/03 06:46:25;;;;;;;17.63;9.47;;;;;;;20.67;65.68;96730.25;5029169;28;20309;-73
2023/06/03 06:48:53;;;;;;;10.97;9.20;;;;;;;21.06;65.81;96728.47;5029292;28;20209;-80
2023/06/03 06:51:23;;;;;;;13.43;9.20;;;;;;;21.32;64.34;96739.19;5028647;28;20179;-73
2023/06/03 06:53:52;;;;;;;18.17;8.90;;;;;;;21.57;63.27;96728.03;5029467;28;20268;-75
2023/06/03 06:56:21;;;;;;;15.67;10.37;;;;;;;21.74;63.23;96741.25;5028271;28;20276;-77
2023/06/03 06:58:59;;;;;;;11.83;7.40;;;;;;;21.51;63.17;96739.97;5028451;28;20206;-76
2023/06/03 07:01:27;;;;;;;10.37;6.90;;;;;;;21.65;63.84;96738.66;5028240;28;20243;-72
2023/06/03 07:03:56;;;;;;;16.57;9.07;;;;;;;21.67;63.94;96734.91;5032728;28;20190;-79
2023/06/03 07:06:23;;;;;;;11.03;7.93;;;;;;;21.81;63.77;96747.66;5043087;28;20290;-78
2023/06/03 07:08:56;;;;;;;16.33;8.83;;;;;;;21.72;64.06;96747.66;5039100;28;20289;-76
2023/06/03 07:11:25;;;;;;;14.23;8.03;;;;;;;21.88;63.41;96756.63;5020523;28;20344;-76
2023/06/03 07:14:01;;;;;;;8.63;7.70;;;;;;;22.07;62.30;96753.03;5045595;28;20196;-78
2023/06/03 07:16:30;;;;;;;18.53;8.20;;;;;;;22.11;62.16;96758.88;5027387;28;20219;-78
2023/06/03 07:18:59;;;;;;;13.47;6.73;;;;;;;22.10;62.43;96763.31;5045645;28;20198;-81
2023/06/03 07:21:33;;;;;;;13.63;7.93;;;;;;;21.64;64.16;96751.00;5026039;28;20720;-79
2023/06/03 07:24:03;;;;;;;13.20;9.30;;;;;;;21.98;63.61;96761.84;5028711;28;20216;-75
2023/06/03 07:26:33;;;;;;;13.87;9.50;;;;;;;21.98;63.81;96751.31;5045033;28;20253;-77
2023/06/03 07:29:03;;;;;;;16.07;10.10;;;;;;;21.97;63.08;96757.53;5030940;28;20200;-74
2023/06/03 07:31:35;;;;;;;16.03;8.70;;;;;;;21.58;64.52;96774.47;5027630;28;20715;-76
2023/06/03 07:34:04;;;;;;;17.83;8.40;;;;;;;21.74;63.49;96770.25;5027705;28;20203;-72
2023/06/03 07:36:43;;;;;;;14.10;8.00;;;;;;;21.97;62.90;96783.09;5046054;28;20227;-73
2023/06/03 07:39:18;;;;;;;12.37;7.60;;;;;;;22.21;62.74;96783.38;5010280;28;20696;-75
2023/06/03 07:41:51;;;;;;;11.43;7.67;;;;;;;22.15;62.16;96773.44;5028307;28;20221;-73
2023/06/03 07:44:48;;;;;;;11.70;7.10;;;;;;;22.22;63.64;96785.03;5043219;28;20291;-73
2023/06/03 07:47:16;;;;;;;15.77;8.70;;;;;;;22.39;67.33;96795.63;5045430;28;20278;-73
2023/06/03 07:49:48;;;;;;;16.17;8.40;;;;;;;22.47;65.30;96800.16;5027717;28;20191;-72
2023/06/03 07:52:21;;;;;;;10.43;7.70;;;;;;;22.42;66.44;96802.44;5045184;28;20187;-75
2023/06/03 07:54:51;;;;;;;16.70;10.13;;;;;;;22.30;67.06;96807.06;4997676;28;20266;-73
2023/06/03 07:57:18;;;;;;;11.03;7.90;;;;;;;22.31;67.32;96813.19;5057373;28;20185;-73
2023/06/03 07:59:55;;;;;;;20.03;10.07;;;;;;;22.07;68.36;96813.72;5042062;28;20198;-74
2023/06/03 08:02:23;;;;;;;11.93;8.80;;;;;;;21.98;68.82;96804.06;5026145;28;20226;-75
2023/06/03 08:04:55;;;;;;;10.03;7.87;;;;;;;21.89;68.90;96812.81;5029394;28;20667;-79
2023/06/03 08:07:32;;;;;;;12.40;9.60;;;;;;;21.94;69.23;96820.31;5045865;28;20188;-73
2023/06/03 08:09:59;;;;;;;11.83;7.40;;;;;;;21.57;70.26;96818.47;5013260;28;20201;-75
2023/06/03 08:12:33;;;;;;;9.07;7.17;;;;;;;21.68;71.07;96815.63;5031232;28;20608;-76
2023/06/03 08:15:01;;;;;;;13.83;8.63;;;;;;;22.01;70.11;96816.94;5045824;28;20200;-76
2023/06/03 08:17:43;;;;;;;16.13;8.77;;;;;;;22.17;71.35;96806.59;5061641;28;20820;-75
2023/06/03 08:20:12;;;;;;;12.73;9.13;;;;;;;22.31;70.71;96816.66;5054795;28;20311;-75
2023/06/03 08:22:43;;;;;;;11.80;9.50;;;;;;;22.10;70.10;96829.25;5045024;28;20218;-72
2023/06/03 08:25:12;;;;;;;10.93;7.67;;;;;;;21.74;70.95;96822.16;5046130;28;20196;-75
2023/06/03 08:27:40;;;;;;;9.33;6.73;;;;;;;21.95;69.72;96821.97;5033422;28;20222;-71
2023/06/03 08:30:09;;;;;;;10.00;8.80;;;;;;;22.03;71.02;96825.53;5033112;28;20204;-76
2023/06/03 08:32:39;;;;;;;11.83;7.17;;;;;;;22.17;70.06;96825.06;5046808;28;20216;-71
2023/06/03 08:35:09;;;;;;;12.50;7.93;;;;;;;22.54;71.06;96827.63;5064112;28;20191;-71
2023/06/03 08:37:37;;;;;;;14.63;7.93;;;;;;;22.77;70.39;96830.72;5064546;28;20295;-73
2023/06/03 08:40:12;;;;;;;11.20;7.63;;;;;;;22.84;70.08;96827.31;5063912;28;20202;-72
2023/06/03 08:42:44;;;;;;;8.80;6.70;;;;;;;23.09;69.70;96823.91;5065212;28;20245;-76
2023/06/03 08:45:14;;;;;;;11.27;7.43;;;;;;;23.08;69.28;96824.06;5046752;28;20194;-74
2023/06/03 08:48:06;;;;;;;17.13;7.10;;;;;;;23.30;68.24;96824.41;5064925;28;20201;-70
2023/06/03 08:50:35;;;;;;;10.63;6.67;;;;;;;23.33;65.68;96825.94;5065070;28;20194;-72
2023/06/03 08:53:08;;;;;;;10.57;6.33;;;;;;;23.30;65.66;96831.50;5050458;28;20546;-72
2023/06/03 08:55:38;;;;;;;25.77;6.90;;;;;;;23.18;65.68;96835.38;5039579;28;20883;-74
2023/06/03 08:58:25;;;;;;;10.00;6.60;;;;;;;23.15;64.30;96833.88;5047251;28;20229;-72
2023/06/03 09:00:59;;;;;;;13.90;8.53;;;;;;;23.39;64.52;96833.25;5029198;28;20196;-74
2023/06/03 09:03:26;;;;;;;17.50;11.03;;;;;;;23.58;63.14;96822.47;5047869;28;20202;-72
2023/06/03 09:05:54;;;;;;;9.43;7.07;;;;;;;23.75;62.45;96834.84;5045286;28;20194;-72
2023/06/03 09:08:23;;;;;;;9.20;5.73;;;;;;;23.74;61.45;96835.00;5027284;28;20199;-72
2023/06/03 09:10:51;;;;;;;15.43;6.33;;;;;;;23.87;60.86;96832.72;5059867;28;20247;-75
2023/06/03 09:13:20;;;;;;;10.60;6.87;;;;;;;24.08;60.20;96826.13;5013531;28;20280;-77
2023/06/03 09:15:50;;;;;;;8.93;6.50;;;;;;;24.06;59.27;96829.91;5046469;28;20294;-76
2023/06/03 09:18:18;;;;;;;16.73;6.50;;;;;;;24.03;59.11;96838.97;5047283;28;20223;-78
2023/06/03 09:20:45;;;;;;;8.87;5.50;;;;;;;24.25;59.15;96833.13;5047569;28;20199;-72
2023/06/03 09:23:15;;;;;;;8.23;5.93;;;;;;;24.25;59.25;96838.41;5029521;28;20236;-80
2023/06/03 09:25:43;;;;;;;7.33;4.80;;;;;;;24.27;57.29;96835.63;5029923;28;20196;-77
2023/06/03 09:28:11;;;;;;;5.50;4.30;;;;;;;24.09;58.07;96822.47;5027188;28;20615;-74
2023/06/03 09:30:38;;;;;;;6.70;4.67;;;;;;;24.23;57.06;96835.09;5032254;28;20220;-77
2023/06/03 09:33:09;;;;;;;9.73;5.50;;;;;;;24.11;57.13;96831.06;5062106;28;20584;-72
2023/06/03 09:35:36;;;;;;;10.03;5.50;;;;;;;24.09;57.35;96796.00;5047150;28;20195;-72
2023/06/03 09:38:06;;;;;;;10.83;6.33;;;;;;;24.33;57.17;96832.34;5047329;28;20276;-74
2023/06/03 09:40:34;;;;;;;7.00;4.70;;;;;;;24.30;57.43;96835.28;5029099;28;20591;-76
2023/06/03 09:43:09;;;;;;;13.13;8.53;;;;;;;24.13;57.43;96825.66;5048055;28;20307;-74
2023/06/03 09:45:36;;;;;;;13.40;6.37;;;;;;;24.25;57.22;96827.81;5012536;28;20187;-73
2023/06/03 09:48:04;;;;;;;11.20;5.00;;;;;;;24.17;57.35;96822.50;5047177;28;20195;-70
2023/06/03 09:50:31;;;;;;;16.77;9.73;;;;;;;24.12;57.08;96824.81;5044765;28;20202;-77
2023/06/03 09:53:01;;;;;;;6.33;4.80;;;;;;;24.17;57.04;96822.50;5046904;28;20666;-75
2023/06/03 09:55:32;;;;;;;8.07;5.07;;;;;;;24.06;58.45;96824.59;5029048;28;20316;-74
2023/06/03 09:58:03;;;;;;;7.20;4.90;;;;;;;24.10;56.90;96834.72;5028864;28;20215;-81
2023/06/03 10:00:32;;;;;;;6.90;5.00;;;;;;;24.06;57.54;96836.03;5046790;28;20201;-71
2023/06/03 10:03:08;;;;;;;6.60;4.33;;;;;;;24.00;58.23;96839.28;5045796;28;20215;-77
2023/06/03 10:05:36;;;;;;;9.30;5.10;;;;;;;24.02;58.12;96839.94;5047206;28;20195;-74
2023/06/03 10:08:06;;;;;;;9.97;4.97;;;;;;;24.13;59.43;96844.97;5066226;28;20225;-81
2023/06/03 10:10:34;;;;;;;6.43;4.63;;;;;;;24.02;59.52;96839.09;5048083;28;20199;-74
2023/06/03 10:13:27;;;;;;;11.83;5.40;;;;;;;24.12;60.52;96839.84;5066376;28;20187;-71
2023/06/03 10:15:54;;;;;;;7.90;5.73;;;;;;;23.98;61.25;96840.41;5063031;28;20201;-77
2023/06/03 10:18:39;;;;;;;10.07;5.30;;;;;;;24.04;61.24;96845.94;5066553;28;20703;-77
2023/06/03 10:21:11;;;;;;;6.57;4.70;;;;;;;24.06;61.28;96843.13;5065885;28;20260;-72
2023/06/03 10:23:42;;;;;;;10.10;5.17;;;;;;;24.29;59.45;96846.88;5081028;28;20192;-70
2023/06/03 10:26:10;;;;;;;10.63;6.20;;;;;;;23.99;60.72;96847.34;5082115;28;20198;-70
2023/06/03 10:28:39;;;;;;;10.60;6.87;;;;;;;23.93;62.35;96838.22;5065981;28;20238;-70
2023/06/03 10:31:12;;;;;;;9.87;7.20;;;;;;;23.64;62.42;96848.31;5066893;28;20239;-74
2023/06/03 10:33:41;;;;;;;7.27;6.50;;;;;;;23.52;61.63;96844.25;5065792;28;20228;-72
2023/06/03 10:36:12;;;;;;;9.13;6.23;;;;;;;23.55;61.63;96854.53;5066119;28;20292;-70
2023/06/03 10:38:40;;;;;;;6.87;6.17;;;;;;;23.46;62.01;96844.88;5065522;28;20254;-71
2023/06/03 10:41:09;;;;;;;7.83;6.20;;;;;;;23.59;62.78;96845.31;5065619;28;20194;-70
2023/06/03 10:43:37;;;;;;;8.50;5.83;;;;;;;23.67;62.77;96842.72;5063774;28;20269;-76
2023/06/03 10:46:05;;;;;;;7.17;6.10;;;;;;;23.55;63.75;96849.25;5047382;28;20224;-72
2023/06/03 10:48:34;;;;;;;6.97;5.93;;;;;;;23.45;64.84;96838.75;5066812;28;20243;-76
2023/06/03 10:51:07;;;;;;;7.57;6.13;;;;;;;23.58;64.23;96848.09;5043046;28;20197;-71
2023/06/03 10:53:56;;;;;;;6.47;5.63;;;;;;;23.72;64.27;96845.72;5043651;28;20199;-72
2023/06/03 10:56:30;;;;;;;5.90;5.30;;;;;;;23.78;65.01;96845.09;5029628;28;20214;-72
2023/06/03 10:59:03;;;;;;;6.73;5.23;;;;;;;23.88;64.26;96848.47;5045822;28;20194;-71
2023/06/03 11:02:02;;;;;;;6.60;5.47;;;;;;;23.92;64.08;96852.47;5012223;28;20600;-72
2023/06/03 11:04:35;;;;;;;11.87;5.87;;;;;;;24.03;63.82;96852.22;5028395;28;20191;-71
2023/06/03 11:07:07;;;;;;;8.60;5.50;;;;;;;23.76;63.64;96836.47;5062169;28;20186;-71
2023/06/03 11:09:37;;;;;;;8.10;4.97;;;;;;;23.31;64.17;96846.38;5028590;28;20193;-80
2023/06/03 11:12:09;;;;;;;7.43;5.67;;;;;;;23.74;63.79;96849.03;5028810;28;20211;-75
2023/06/03 11:14:48;;;;;;;5.23;4.73;;;;;;;24.00;61.93;96849.88;5028121;28;20198;-69
2023/06/03 11:17:18;;;;;;;6.13;4.90;;;;;;;23.31;64.31;96851.66;5045909;28;20206;-71
2023/06/03 11:19:45;;;;;;;5.93;5.00;;;;;;;23.83;62.68;96850.75;5046860;28;20194;-80
2023/06/03 11:22:28;;;;;;;6.40;5.30;;;;;;;24.04;63.31;96851.25;5045032;28;20235;-75
2023/06/03 11:25:02;;;;;;;7.57;5.50;;;;;;;24.29;60.81;96852.19;5044833;28;20190;-74
2023/06/03 11:27:40;;;;;;;6.97;5.07;;;;;;;24.45;60.43;96859.34;5045055;28;20283;-79
2023/06/03 11:30:08;;;;;;;5.60;4.50;;;;;;;24.35;60.61;96851.53;5009439;28;20625;-81
2023/06/03 11:32:36;;;;;;;7.33;5.07;;;;;;;24.26;61.62;96841.91;5043945;28;20203;-71
2023/06/03 11:35:05;;;;;;;8.70;5.97;;;;;;;24.42;61.57;96857.03;5044645;28;20195;-76
2023/06/03 11:37:40;;;;;;;5.33;4.73;;;;;;;24.10;62.84;96850.59;5028453;28;20197;-70
2023/06/03 11:40:14;;;;;;;6.33;5.07;;;;;;;23.74;63.31;96848.22;5045423;28;20196;-74
2023/06/03 11:42:47;;;;;;;8.80;5.70;;;;;;;23.82;63.50;96846.44;5028368;28;20228;-76
2023/06/03 11:45:21;;;;;;;8.17;5.93;;;;;;;23.65;64.71;96855.25;5046222;28;20192;-70
2023/06/03 11:47:56;;;;;;;7.30;5.50;;;;;;;23.22;67.03;96863.16;5027475;28;20326;-74